createdAt,value
2022-11-27T00:02:10.295Z,-0.50
2022-11-27T00:04:37.822Z,-0.60
2022-11-27T00:07:05.100Z,-0.70
2022-11-27T00:09:33.416Z,-0.70
2022-11-27T00:12:00.744Z,-0.70
2022-11-27T00:14:28.340Z,-0.80
2022-11-27T00:16:55.714Z,-0.80
2022-11-27T00:19:23.086Z,-0.80
2022-11-27T00:21:50.388Z,-0.80
2022-11-27T00:24:57.078Z,-0.80
2022-11-27T00:27:24.814Z,-0.70
2022-11-27T00:29:52.181Z,-0.70
2022-11-27T00:32:19.469Z,-0.60
2022-11-27T00:34:46.748Z,-0.70
2022-11-27T00:37:14.786Z,-0.70
2022-11-27T00:39:42.106Z,-0.70
2022-11-27T00:42:09.453Z,-0.70
2022-11-27T00:44:36.775Z,-0.70
2022-11-27T00:47:04.323Z,-0.80
2022-11-27T00:49:32.284Z,-0.80
2022-11-27T00:51:59.721Z,-1.00
2022-11-27T00:54:30.425Z,-1.10
2022-11-27T00:56:57.923Z,-1.10
2022-11-27T00:59:25.555Z,-1.10
2022-11-27T01:01:52.950Z,-1.10
2022-11-27T01:04:20.306Z,-1.10
2022-11-27T01:06:47.878Z,-1.20
2022-11-27T01:09:15.657Z,-1.20
2022-11-27T01:11:43.189Z,-1.10
2022-11-27T01:14:16.627Z,-1.20
2022-11-27T01:16:44.151Z,-1.20
2022-11-27T01:19:13.367Z,-1.20
2022-11-27T01:21:41.201Z,-1.20
2022-11-27T01:24:14.695Z,-1.20
2022-11-27T01:26:43.403Z,-1.20
2022-11-27T01:29:11.390Z,-1.20
2022-11-27T01:31:40.341Z,-1.10
2022-11-27T01:34:14.142Z,-1.00
2022-11-27T01:36:41.586Z,-1.00
2022-11-27T01:39:16.613Z,-1.00
2022-11-27T01:41:44.212Z,-1.00
2022-11-27T01:44:23.870Z,-0.90
2022-11-27T01:47:05.334Z,-0.90
2022-11-27T01:49:42.606Z,-0.90
2022-11-27T01:52:15.171Z,-0.90
2022-11-27T01:55:12.578Z,-0.90
2022-11-27T01:57:47.283Z,-1.00
2022-11-27T02:00:16.391Z,-1.00
2022-11-27T02:02:44.805Z,-1.00
2022-11-27T02:05:17.416Z,-0.90
2022-11-27T02:07:46.686Z,-0.90
2022-11-27T02:10:15.304Z,-0.90
2022-11-27T02:13:23.945Z,-0.90
2022-11-27T02:15:55.467Z,-0.90
2022-11-27T02:18:43.910Z,-0.90
2022-11-27T02:21:21.828Z,-0.90
2022-11-27T02:24:57.157Z,-0.90
2022-11-27T02:27:42.794Z,-0.90
2022-11-27T02:30:10.851Z,-1.00
2022-11-27T02:33:02.885Z,-1.10
2022-11-27T02:35:33.649Z,-1.00
2022-11-27T02:38:14.532Z,-1.10
2022-11-27T02:41:08.872Z,-1.00
2022-11-27T02:43:42.948Z,-1.00
2022-11-27T02:46:12.888Z,-1.00
2022-11-27T02:48:48.180Z,-1.00
2022-11-27T02:51:19.812Z,-1.00
2022-11-27T02:53:52.708Z,-1.10
2022-11-27T02:56:28.083Z,-1.10
2022-11-27T02:59:00.004Z,-1.00
2022-11-27T03:01:34.008Z,-1.00
2022-11-27T03:04:04.076Z,-1.00
2022-11-27T03:06:38.814Z,-1.00
2022-11-27T03:09:10.861Z,-1.00
2022-11-27T03:11:39.678Z,-1.00
2022-11-27T03:14:09.017Z,-1.00
2022-11-27T03:17:06.752Z,-0.90
2022-11-27T03:19:50.490Z,-0.80
2022-11-27T03:22:17.983Z,-0.90
2022-11-27T03:25:24.662Z,-0.80
2022-11-27T03:28:05.023Z,-0.80
2022-11-27T03:30:32.506Z,-0.80
2022-11-27T03:33:01.161Z,-0.90
2022-11-27T03:35:28.705Z,-0.90
2022-11-27T03:37:56.686Z,-0.90
2022-11-27T03:40:54.922Z,-0.80
2022-11-27T03:43:27.496Z,-0.80
2022-11-27T03:46:04.440Z,-0.80
2022-11-27T03:48:44.302Z,-0.80
2022-11-27T03:51:25.370Z,-0.80
2022-11-27T03:53:56.918Z,-0.90
2022-11-27T03:56:30.275Z,-1.00
2022-11-27T03:59:05.550Z,-1.00
2022-11-27T04:01:32.960Z,-1.00
2022-11-27T04:04:00.358Z,-1.00
2022-11-27T04:06:27.838Z,-1.00
2022-11-27T04:08:55.118Z,-1.10
2022-11-27T04:11:22.424Z,-1.20
2022-11-27T04:13:52.033Z,-1.20
2022-11-27T04:16:19.969Z,-1.30
2022-11-27T04:18:47.392Z,-1.30
2022-11-27T04:21:14.754Z,-1.30
2022-11-27T04:23:42.070Z,-1.30
2022-11-27T04:30:26.211Z,-1.40
2022-11-27T04:32:53.586Z,-1.40
2022-11-27T04:35:20.855Z,-1.40
2022-11-27T04:37:48.159Z,-1.30
2022-11-27T04:40:15.541Z,-1.40
2022-11-27T04:42:42.819Z,-1.40
2022-11-27T04:45:10.628Z,-1.50
2022-11-27T04:47:37.887Z,-1.60
2022-11-27T04:50:06.047Z,-1.60
2022-11-27T04:52:33.591Z,-1.60
2022-11-27T04:55:33.043Z,-1.70
2022-11-27T04:58:00.428Z,-1.70
2022-11-27T05:00:27.764Z,-1.70
2022-11-27T05:02:55.177Z,-1.70
2022-11-27T05:05:22.616Z,-1.80
2022-11-27T05:07:49.959Z,-1.90
2022-11-27T05:10:17.955Z,-2.00
2022-11-27T05:12:45.719Z,-2.00
2022-11-27T05:15:13.000Z,-2.00
2022-11-27T05:17:40.307Z,-2.10
2022-11-27T05:20:08.254Z,-2.10
2022-11-27T05:22:35.661Z,-2.10
2022-11-27T05:25:46.448Z,-2.00
2022-11-27T05:28:13.772Z,-2.00
2022-11-27T05:30:41.084Z,-2.00
2022-11-27T05:33:08.445Z,-2.00
2022-11-27T05:35:36.132Z,-2.00
2022-11-27T05:38:03.563Z,-2.00
2022-11-27T05:40:31.164Z,-2.10
2022-11-27T05:42:58.466Z,-2.10
2022-11-27T05:45:25.849Z,-2.00
2022-11-27T05:47:53.172Z,-2.00
2022-11-27T05:50:20.468Z,-1.90
2022-11-27T05:52:47.848Z,-1.90
2022-11-27T05:55:47.165Z,-1.80
2022-11-27T05:58:14.424Z,-2.00
2022-11-27T06:00:41.752Z,-1.90
2022-11-27T06:03:09.142Z,-1.90
2022-11-27T06:05:40.203Z,-1.90
2022-11-27T06:08:07.605Z,-1.80
2022-11-27T06:10:35.037Z,-1.80
2022-11-27T06:13:02.346Z,-1.80
2022-11-27T06:15:29.681Z,-1.80
2022-11-27T06:17:56.961Z,-1.80
2022-11-27T06:20:24.605Z,-1.80
2022-11-27T06:22:52.000Z,-1.80
2022-11-27T06:25:26.905Z,-1.80
2022-11-27T06:27:54.253Z,-1.70
2022-11-27T06:30:21.678Z,-1.70
2022-11-27T06:32:48.999Z,-1.80
2022-11-27T06:35:16.503Z,-1.80
2022-11-27T06:37:43.839Z,-1.80
2022-11-27T06:40:11.481Z,-1.80
2022-11-27T06:42:38.733Z,-1.80
2022-11-27T06:45:06.633Z,-1.70
2022-11-27T06:47:33.937Z,-1.70
2022-11-27T06:50:01.259Z,-1.60
2022-11-27T06:52:28.617Z,-1.60
2022-11-27T06:55:34.398Z,-1.60
2022-11-27T06:58:01.738Z,-1.70
2022-11-27T07:00:29.207Z,-1.70
2022-11-27T07:02:59.524Z,-1.70
2022-11-27T07:05:26.875Z,-1.70
2022-11-27T07:07:54.291Z,-1.70
2022-11-27T07:10:21.839Z,-1.70
2022-11-27T07:12:49.242Z,-1.70
2022-11-27T07:15:16.547Z,-1.70
2022-11-27T07:17:43.894Z,-1.70
2022-11-27T07:20:11.478Z,-1.70
2022-11-27T07:22:38.758Z,-1.60
2022-11-27T07:25:38.668Z,-1.60
2022-11-27T07:28:05.951Z,-1.60
2022-11-27T07:30:33.280Z,-1.60
2022-11-27T07:33:00.542Z,-1.50
2022-11-27T07:35:27.827Z,-1.60
2022-11-27T07:37:55.275Z,-1.60
2022-11-27T07:40:22.767Z,-1.50
2022-11-27T07:42:50.108Z,-1.50
2022-11-27T07:45:19.192Z,-1.50
2022-11-27T07:47:49.084Z,-1.50
2022-11-27T07:50:16.549Z,-1.50
2022-11-27T07:52:43.956Z,-1.50
2022-11-27T07:55:11.439Z,-1.60
2022-11-27T07:57:39.839Z,-1.50
2022-11-27T08:00:08.235Z,-1.50
2022-11-27T08:02:35.572Z,-1.40
2022-11-27T08:05:05.795Z,-1.30
2022-11-27T08:14:56.497Z,-1.20
2022-11-27T08:17:23.776Z,-1.20
2022-11-27T08:19:51.160Z,-1.20
2022-11-27T08:22:21.952Z,-1.20
2022-11-27T08:24:50.272Z,-1.30
2022-11-27T08:27:17.551Z,-1.10
2022-11-27T08:29:44.960Z,-1.10
2022-11-27T08:32:12.373Z,-1.00
2022-11-27T08:34:40.010Z,-0.90
2022-11-27T08:37:07.880Z,-0.80
2022-11-27T08:39:35.236Z,-0.70
2022-11-27T08:42:02.733Z,-0.70
2022-11-27T08:44:30.126Z,-0.70
2022-11-27T08:46:57.432Z,-0.70
2022-11-27T08:49:24.848Z,-0.70
2022-11-27T08:51:52.149Z,-0.60
2022-11-27T08:54:59.086Z,-0.60
2022-11-27T08:57:26.450Z,-0.50
2022-11-27T08:59:53.745Z,-0.50
2022-11-27T09:02:20.996Z,-0.50
2022-11-27T09:04:48.297Z,-0.50
2022-11-27T09:07:16.626Z,-0.60
2022-11-27T09:09:44.110Z,-0.60
2022-11-27T09:12:11.391Z,-0.60
2022-11-27T09:14:39.059Z,-0.50
2022-11-27T09:17:06.622Z,-0.50
2022-11-27T09:19:33.981Z,-0.30
2022-11-27T09:22:01.487Z,-0.30
2022-11-27T09:24:39.393Z,-0.30
2022-11-27T09:27:06.934Z,-0.30
2022-11-27T09:29:35.314Z,-0.40
2022-11-27T09:32:02.764Z,-0.30
2022-11-27T09:34:37.495Z,-0.30
2022-11-27T09:37:05.314Z,-0.30
2022-11-27T09:39:33.974Z,-0.40
2022-11-27T09:42:12.622Z,-0.40
2022-11-27T09:44:49.617Z,-0.30
2022-11-27T09:47:41.799Z,-0.20
2022-11-27T09:50:24.369Z,-0.10
2022-11-27T09:53:05.073Z,0.00
2022-11-27T09:56:14.492Z,0.00
2022-11-27T09:58:45.919Z,0.00
2022-11-27T10:01:16.245Z,0.00
2022-11-27T10:03:50.083Z,0.00
2022-11-27T10:06:28.214Z,0.20
2022-11-27T10:09:33.242Z,0.20
2022-11-27T10:12:36.083Z,0.20
2022-11-27T10:15:19.405Z,0.10
2022-11-27T10:18:01.540Z,0.20
2022-11-27T10:20:44.535Z,0.20
2022-11-27T10:23:41.314Z,0.20
2022-11-27T10:26:19.686Z,0.20
2022-11-27T10:29:04.707Z,0.30
2022-11-27T10:31:42.931Z,0.30
2022-11-27T10:34:40.438Z,0.30
2022-11-27T10:37:20.493Z,0.20
2022-11-27T10:39:56.211Z,0.20
2022-11-27T10:42:35.683Z,0.30
2022-11-27T10:45:30.003Z,0.30
2022-11-27T10:47:57.381Z,0.50
2022-11-27T10:50:24.819Z,0.60
2022-11-27T10:52:59.306Z,0.60
2022-11-27T10:56:17.099Z,0.50
2022-11-27T10:58:54.776Z,0.50
2022-11-27T11:01:24.131Z,0.50
2022-11-27T11:04:18.709Z,0.50
2022-11-27T11:06:51.946Z,0.70
2022-11-27T11:09:25.760Z,0.90
2022-11-27T11:11:53.487Z,0.90
2022-11-27T11:14:26.346Z,0.80
2022-11-27T11:16:55.081Z,0.80
2022-11-27T11:19:33.449Z,0.80
2022-11-27T11:22:08.104Z,1.00
2022-11-27T11:24:49.601Z,1.10
2022-11-27T11:27:26.303Z,1.20
2022-11-27T11:29:58.466Z,1.30
2022-11-27T11:32:29.469Z,1.30
2022-11-27T11:35:24.356Z,1.20
